Airport ID:KN38
Update Time (UTC):19/06/2019 13:49
Wind Speed (Knots):4
Wind Direction (Magnetic):190
Temperature (°C):20
Dew Point (°C):18
Humidity (%):90
Altimeter (inHg):29.87
Density Altitude (Feet):3300
Visibility (Miles):10+
Clouds (Hundreds of feet):BKN011 OVC018
Present Weather:
METAR:METAR KN38 191345Z AUTO 22005KT 10SM SCT011 OVC018 20/19 A2988 RMK AO2

The data displayed is for advisory purposes only and is not to be used for flight planning or operations.

This page is not automatically refreshed. Reload the page to see current data.